Aldenville, Pennsylvania
Current Conditions -  °F | °C
As of 12:35 PM on Friday 21 Nov 2014 (Local Time) from KMSV Reporting Station
Overcast Overcast  
Wind Chill: -10°   Ceiling: 4200
Heat Index: -3°   Visibility: 10mi
Dew Point: -12°   Wind: 17mph
Humidity: 51%   Direction: 300°WNW
Pressure: 30.23"   Gusts: 29mph
Location:  41.65°N, 75.36°W
Report Text: KMSV 211735Z AUTO 30015G25KT 10SM SCT035 BKN042 OVC050 M03/M12 A3023 RMK AO1
Loading
Personal Weather Stations






























Interactive Weather Map New forecast layout! Learn more

10-Day Weather Forecast

Advertisements
Track Severe Weather on mobile